createdAt,value
2022-11-28T00:01:43.183Z,40.08
2022-11-28T00:04:11.883Z,41.35
2022-11-28T00:06:46.067Z,42.38
2022-11-28T00:09:14.775Z,40.70
2022-11-28T00:11:44.490Z,42.15
2022-11-28T00:14:12.655Z,41.45
2022-11-28T00:16:39.831Z,43.95
2022-11-28T00:19:07.831Z,43.28
2022-11-28T00:21:35.403Z,40.78
2022-11-28T00:24:02.647Z,42.40
2022-11-28T00:26:39.968Z,42.00
2022-11-28T00:29:09.543Z,39.63
2022-11-28T00:31:42.693Z,39.63
2022-11-28T00:34:13.367Z,41.38
2022-11-28T00:36:40.519Z,41.75
2022-11-28T00:39:07.481Z,43.67
2022-11-28T00:41:35.323Z,40.67
2022-11-28T00:44:02.523Z,41.97
2022-11-28T00:46:29.897Z,42.05
2022-11-28T00:48:58.949Z,43.72
2022-11-28T00:51:29.527Z,42.75
2022-11-28T00:54:00.131Z,42.55
2022-11-28T00:56:36.827Z,40.33
2022-11-28T00:59:04.330Z,42.08
2022-11-28T01:01:36.388Z,43.75
2022-11-28T01:04:07.927Z,45.27
2022-11-28T01:06:42.684Z,39.25
2022-11-28T01:09:17.885Z,37.28
2022-11-28T01:11:46.336Z,40.10
2022-11-28T01:14:13.685Z,36.83
2022-11-28T01:16:40.774Z,38.08
2022-11-28T01:19:08.019Z,42.83
2022-11-28T01:21:36.175Z,34.63
2022-11-28T01:24:03.633Z,34.35
2022-11-28T01:26:31.470Z,34.35
2022-11-28T01:29:00.419Z,34.80
2022-11-28T01:31:29.574Z,32.10
2022-11-28T01:33:57.901Z,32.63
2022-11-28T01:36:26.594Z,32.60
2022-11-28T01:38:53.583Z,32.53
2022-11-28T01:41:25.872Z,31.60
2022-11-28T01:44:08.903Z,29.00
2022-11-28T01:46:37.018Z,30.17
2022-11-28T01:49:27.815Z,31.90
2022-11-28T01:52:08.939Z,27.80
2022-11-28T01:54:38.537Z,31.00
2022-11-28T01:57:12.434Z,29.45
2022-11-28T01:59:47.670Z,28.88
2022-11-28T02:02:42.091Z,30.15
2022-11-28T02:05:09.647Z,29.65
2022-11-28T02:07:37.976Z,29.33
2022-11-28T02:10:10.614Z,29.98
2022-11-28T02:13:25.175Z,28.17
2022-11-28T02:16:39.949Z,30.58
2022-11-28T02:19:34.006Z,28.83
2022-11-28T02:22:17.651Z,31.20
2022-11-28T02:25:36.936Z,29.45
2022-11-28T02:28:40.592Z,28.63
2022-11-28T02:35:03.467Z,26.13
2022-11-28T02:38:34.846Z,31.45
2022-11-28T02:41:28.122Z,26.73
2022-11-28T02:44:15.251Z,28.15
2022-11-28T02:47:05.761Z,24.77
2022-11-28T02:49:57.980Z,27.10
2022-11-28T02:52:53.313Z,26.35
2022-11-28T03:07:52.844Z,34.97
2022-11-28T03:10:55.676Z,29.80
2022-11-28T03:13:38.247Z,33.10
2022-11-28T03:16:39.535Z,24.75
2022-11-28T03:19:19.264Z,31.38
2022-11-28T03:22:04.701Z,29.42
2022-11-28T03:24:53.636Z,31.67
2022-11-28T03:27:23.524Z,30.95
2022-11-28T03:29:57.654Z,31.73
2022-11-28T03:32:34.563Z,31.25
2022-11-28T03:35:16.936Z,32.75
2022-11-28T03:38:20.266Z,30.20
2022-11-28T03:40:53.946Z,30.90
2022-11-28T03:43:28.867Z,32.50
2022-11-28T03:46:02.839Z,31.42
2022-11-28T03:48:40.847Z,32.25
2022-11-28T03:51:40.165Z,29.52
2022-11-28T03:54:10.659Z,29.27
2022-11-28T03:56:51.911Z,32.30
2022-11-28T03:59:30.009Z,32.40
2022-11-28T04:02:28.807Z,35.70
2022-11-28T04:04:59.881Z,30.42
2022-11-28T04:07:32.846Z,28.23
2022-11-28T04:13:20.150Z,27.70
2022-11-28T04:16:04.561Z,30.55
2022-11-28T04:18:55.379Z,32.33
2022-11-28T04:21:55.507Z,29.33
2022-11-28T04:24:29.567Z,30.75
2022-11-28T04:27:04.155Z,30.10
2022-11-28T04:29:41.227Z,31.08
2022-11-28T04:32:11.395Z,30.95
2022-11-28T04:34:44.348Z,29.77
2022-11-28T04:37:15.499Z,30.73
2022-11-28T04:39:47.304Z,32.17
2022-11-28T04:42:23.417Z,31.20
2022-11-28T04:45:02.909Z,32.13
2022-11-28T04:47:33.105Z,29.40
2022-11-28T04:50:00.490Z,33.95
2022-11-28T04:53:18.973Z,30.58
2022-11-28T04:55:55.230Z,29.85
2022-11-28T04:58:44.236Z,30.40
2022-11-28T05:01:19.952Z,27.40
2022-11-28T05:03:47.280Z,28.13
2022-11-28T05:06:29.222Z,27.08
2022-11-28T05:08:56.440Z,25.55
2022-11-28T05:11:24.159Z,26.50
2022-11-28T05:13:51.197Z,27.83
2022-11-28T05:16:18.731Z,27.42
2022-11-28T05:18:45.935Z,27.27
2022-11-28T05:21:13.275Z,27.67
2022-11-28T05:23:43.539Z,29.35
2022-11-28T05:26:20.757Z,26.75
2022-11-28T05:28:51.062Z,25.90
2022-11-28T05:31:21.196Z,26.13
2022-11-28T05:33:48.231Z,26.65
2022-11-28T05:36:16.478Z,27.05
2022-11-28T05:38:44.412Z,27.25
2022-11-28T05:41:31.116Z,27.00
2022-11-28T05:44:00.232Z,25.33
2022-11-28T05:46:28.915Z,27.60
2022-11-28T05:48:56.891Z,27.50
2022-11-28T05:51:24.266Z,26.52
2022-11-28T05:53:51.487Z,28.35
2022-11-28T05:56:23.009Z,29.08
2022-11-28T05:58:50.140Z,30.27
2022-11-28T06:01:22.283Z,28.65
2022-11-28T06:03:49.575Z,30.07
2022-11-28T06:06:18.863Z,29.27
2022-11-28T06:08:47.206Z,29.80
2022-11-28T06:11:16.008Z,28.65
2022-11-28T06:13:44.979Z,30.35
2022-11-28T06:16:15.735Z,31.45
2022-11-28T06:18:43.226Z,28.80
2022-11-28T06:21:12.292Z,31.20
2022-11-28T06:23:40.543Z,29.60
2022-11-28T06:26:16.887Z,30.23
2022-11-28T06:28:44.563Z,29.67
2022-11-28T06:31:14.789Z,29.42
2022-11-28T06:33:42.177Z,28.25
2022-11-28T06:36:11.238Z,30.02
2022-11-28T06:38:38.835Z,31.70
2022-11-28T06:41:11.663Z,29.63
2022-11-28T06:43:39.350Z,29.40
2022-11-28T06:46:15.929Z,28.85
2022-11-28T06:48:44.678Z,29.77
2022-11-28T06:51:13.265Z,30.75
2022-11-28T06:53:40.776Z,29.52
2022-11-28T06:56:19.946Z,30.50
2022-11-28T06:58:53.510Z,29.33
2022-11-28T07:01:23.248Z,28.58
2022-11-28T07:03:51.658Z,27.65
2022-11-28T07:06:19.898Z,26.77
2022-11-28T07:08:47.827Z,29.75
2022-11-28T07:11:19.709Z,28.08
2022-11-28T07:13:47.821Z,30.48
2022-11-28T07:16:21.809Z,30.70
2022-11-28T07:18:50.301Z,29.10
2022-11-28T07:21:17.916Z,29.08
2022-11-28T07:23:46.079Z,27.33
2022-11-28T07:26:15.851Z,26.85
2022-11-28T07:28:43.892Z,28.60
2022-11-28T07:31:15.453Z,27.30
2022-11-28T07:33:46.458Z,28.08
2022-11-28T07:36:23.773Z,27.70
2022-11-28T07:38:55.303Z,27.65
2022-11-28T07:41:26.464Z,26.33
2022-11-28T07:43:58.014Z,26.95
2022-11-28T07:46:26.354Z,27.27
2022-11-28T07:48:53.551Z,27.00
2022-11-28T07:51:29.020Z,29.23
2022-11-28T07:53:56.368Z,28.33
2022-11-28T07:56:39.503Z,29.08
2022-11-28T07:59:14.683Z,26.77
2022-11-28T08:01:41.880Z,29.50
2022-11-28T08:04:10.355Z,27.67
2022-11-28T08:06:42.084Z,28.65
2022-11-28T08:09:09.491Z,27.90
2022-11-28T08:11:36.815Z,25.88
2022-11-28T08:14:05.515Z,27.45
2022-11-28T08:16:33.087Z,29.33
2022-11-28T08:19:03.625Z,27.75
2022-11-28T08:21:33.201Z,27.10
2022-11-28T08:24:02.177Z,30.55
2022-11-28T08:26:32.424Z,29.67
2022-11-28T08:29:01.738Z,30.23
2022-11-28T08:31:34.604Z,28.10
2022-11-28T08:34:06.460Z,26.92
2022-11-28T08:36:33.594Z,29.38
2022-11-28T08:39:22.963Z,28.02
2022-11-28T08:41:49.878Z,28.25
2022-11-28T08:44:16.826Z,28.27
2022-11-28T08:46:44.287Z,27.27
2022-11-28T08:49:11.253Z,30.10
2022-11-28T08:51:38.303Z,28.58
2022-11-28T08:54:05.457Z,28.50
2022-11-28T08:56:32.608Z,29.23
2022-11-28T08:59:00.397Z,28.10
2022-11-28T09:01:28.004Z,31.95
2022-11-28T09:03:56.985Z,31.23
2022-11-28T09:06:25.026Z,32.00
2022-11-28T09:08:53.549Z,31.58
2022-11-28T09:11:22.730Z,31.25
2022-11-28T09:13:51.106Z,33.55
2022-11-28T09:16:18.514Z,35.63
2022-11-28T09:18:45.709Z,35.45
2022-11-28T09:21:15.273Z,37.25
2022-11-28T09:23:44.763Z,35.85
2022-11-28T09:26:16.267Z,35.58
2022-11-28T09:28:44.487Z,37.15
2022-11-28T09:31:13.853Z,36.20
2022-11-28T09:33:41.753Z,36.47
2022-11-28T09:36:15.467Z,32.33
2022-11-28T09:38:42.746Z,32.33
2022-11-28T09:41:28.276Z,32.97
2022-11-28T09:44:14.571Z,34.72
2022-11-28T09:46:44.155Z,34.75
2022-11-28T09:49:40.434Z,32.65
2022-11-28T09:52:48.958Z,35.63
2022-11-28T09:55:23.987Z,34.95
2022-11-28T09:57:53.403Z,32.80
2022-11-28T10:00:43.388Z,34.47
2022-11-28T10:03:25.810Z,33.65
2022-11-28T10:06:43.008Z,34.25
2022-11-28T10:09:27.606Z,30.42
2022-11-28T10:12:25.416Z,30.05
2022-11-28T10:15:08.720Z,31.98
2022-11-28T10:17:53.741Z,32.42
2022-11-28T10:20:34.377Z,35.17
2022-11-28T10:23:30.292Z,36.00
2022-11-28T10:26:05.740Z,33.50
2022-11-28T10:28:37.613Z,33.20
2022-11-28T10:31:19.238Z,33.67
2022-11-28T10:33:58.093Z,33.20
2022-11-28T10:37:15.709Z,32.80
2022-11-28T10:39:46.132Z,34.13
2022-11-28T10:42:52.189Z,33.53
2022-11-28T10:45:34.115Z,33.30
2022-11-28T10:48:40.317Z,34.05
2022-11-28T10:51:35.341Z,33.80
2022-11-28T10:54:31.594Z,36.33
2022-11-28T10:57:31.011Z,34.67
2022-11-28T11:00:13.493Z,34.72
2022-11-28T11:02:54.895Z,37.70
2022-11-28T11:05:28.326Z,34.85
2022-11-28T11:08:11.589Z,36.05
2022-11-28T11:11:17.611Z,37.15
2022-11-28T11:14:10.796Z,33.42
2022-11-28T11:16:59.200Z,34.90
2022-11-28T11:19:39.326Z,36.28
2022-11-28T11:22:29.217Z,36.47
2022-11-28T11:25:20.083Z,38.60
2022-11-28T11:27:52.579Z,39.38
2022-11-28T11:30:35.426Z,38.88
2022-11-28T11:33:06.210Z,38.75
2022-11-28T11:35:46.099Z,39.00
2022-11-28T11:49:31.819Z,41.45
2022-11-28T11:52:12.759Z,38.72
2022-11-28T11:55:13.060Z,35.47
2022-11-28T11:57:49.108Z,33.65
2022-11-28T12:00:22.464Z,35.35
2022-11-28T12:03:53.345Z,33.17
2022-11-28T12:06:32.785Z,34.60
2022-11-28T12:09:19.505Z,36.17
2022-11-28T12:12:01.542Z,36.40
2022-11-28T12:14:35.390Z,37.40
2022-11-28T12:17:58.575Z,38.50
2022-11-28T12:21:30.592Z,35.60
2022-11-28T12:24:22.043Z,34.88
2022-11-28T12:26:53.240Z,33.28
2022-11-28T12:29:23.297Z,34.20
2022-11-28T12:32:28.249Z,35.60
2022-11-28T12:35:47.023Z,34.45
2022-11-28T12:38:44.480Z,33.55
2022-11-28T12:41:38.587Z,33.85
2022-11-28T12:44:42.276Z,34.65
2022-11-28T12:50:25.249Z,35.42
2022-11-28T12:53:18.310Z,33.13
2022-11-28T12:56:00.203Z,35.75
2022-11-28T12:58:59.476Z,34.53
2022-11-28T13:02:25.890Z,36.92
2022-11-28T13:05:32.894Z,34.35
2022-11-28T13:08:34.575Z,33.25
2022-11-28T13:11:25.855Z,36.35
2022-11-28T13:14:28.317Z,37.38
2022-11-28T13:17:01.366Z,33.25
2022-11-28T13:22:24.500Z,32.53
2022-11-28T13:25:14.046Z,34.17
2022-11-28T13:28:05.985Z,35.58
2022-11-28T13:30:48.492Z,35.40
2022-11-28T13:33:30.562Z,35.67
2022-11-28T13:36:00.083Z,35.63
2022-11-28T13:39:08.245Z,37.50
2022-11-28T13:44:59.471Z,36.83
2022-11-28T13:47:33.489Z,35.53
2022-11-28T13:50:25.321Z,37.60
2022-11-28T13:53:24.080Z,37.42
2022-11-28T13:56:08.976Z,37.05
2022-11-28T13:58:47.734Z,37.10
2022-11-28T14:01:15.831Z,36.75
2022-11-28T14:04:15.323Z,38.33
2022-11-28T14:06:54.581Z,37.97
2022-11-28T14:09:44.689Z,38.35
2022-11-28T14:12:57.686Z,40.15
2022-11-28T14:16:08.008Z,40.72
2022-11-28T14:19:12.815Z,41.22
2022-11-28T14:21:56.023Z,42.25
2022-11-28T14:25:10.975Z,50.53
2022-11-28T14:27:47.288Z,42.33
2022-11-28T14:30:39.625Z,42.97
2022-11-28T14:33:39.374Z,44.38
2022-11-28T14:36:34.131Z,43.05
2022-11-28T14:39:19.605Z,45.08
2022-11-28T14:42:05.333Z,47.25
2022-11-28T14:44:54.745Z,43.20
2022-11-28T14:47:21.735Z,45.15
2022-11-28T14:49:49.581Z,47.75
2022-11-28T14:52:41.195Z,47.95
2022-11-28T14:55:08.446Z,46.25
2022-11-28T14:58:00.667Z,47.15
2022-11-28T15:00:53.634Z,48.97
2022-11-28T15:03:36.035Z,50.30
2022-11-28T15:06:19.962Z,50.88
2022-11-28T15:09:04.415Z,47.40
2022-11-28T15:12:08.523Z,48.13
2022-11-28T15:14:36.831Z,46.53
2022-11-28T15:17:10.616Z,46.60
2022-11-28T15:19:44.301Z,48.20
2022-11-28T15:22:33.549Z,46.83
2022-11-28T15:25:00.604Z,45.85
2022-11-28T15:27:28.636Z,45.33
2022-11-28T15:30:01.562Z,46.47
2022-11-28T15:32:31.733Z,47.05
2022-11-28T15:35:09.372Z,48.42
2022-11-28T15:37:56.639Z,47.78
2022-11-28T15:40:33.084Z,47.60
2022-11-28T15:43:02.074Z,46.30
2022-11-28T15:45:38.071Z,46.25
2022-11-28T15:48:05.168Z,45.80
2022-11-28T15:50:34.511Z,51.38
2022-11-28T15:53:18.027Z,56.20
2022-11-28T15:55:45.857Z,55.35
2022-11-28T15:58:28.589Z,55.65
2022-11-28T16:01:27.111Z,51.60
2022-11-28T16:04:13.732Z,50.47
2022-11-28T16:06:44.623Z,51.88
2022-11-28T16:09:17.799Z,54.22
2022-11-28T16:11:51.311Z,57.72
2022-11-28T16:14:27.725Z,55.47
2022-11-28T16:16:56.939Z,52.08
2022-11-28T16:19:37.452Z,50.63
2022-11-28T16:22:17.191Z,47.63
2022-11-28T16:24:55.463Z,54.65
2022-11-28T16:27:29.325Z,49.28
2022-11-28T16:29:56.966Z,50.05
2022-11-28T16:32:32.237Z,50.90
2022-11-28T16:35:02.479Z,48.40
2022-11-28T16:37:32.935Z,48.63
2022-11-28T16:40:23.250Z,54.45
2022-11-28T16:42:55.379Z,55.83
2022-11-28T16:45:32.767Z,51.23
2022-11-28T16:48:13.654Z,46.00
2022-11-28T16:51:07.465Z,47.00
2022-11-28T16:53:46.507Z,45.63
2022-11-28T16:56:31.580Z,45.60
2022-11-28T16:59:18.847Z,45.92
2022-11-28T17:01:53.873Z,43.95
2022-11-28T17:04:23.913Z,46.40
2022-11-28T17:06:53.481Z,45.70
2022-11-28T17:09:20.667Z,46.53
2022-11-28T17:12:11.643Z,44.25
2022-11-28T17:14:39.216Z,43.88
2022-11-28T17:17:18.149Z,43.60
2022-11-28T17:19:45.912Z,42.17
2022-11-28T17:22:17.912Z,43.13
2022-11-28T17:24:46.745Z,43.80
2022-11-28T17:27:14.759Z,41.92
2022-11-28T17:29:42.696Z,40.63
2022-11-28T17:32:13.569Z,42.13
2022-11-28T17:34:42.146Z,40.80
2022-11-28T17:37:10.070Z,42.20
2022-11-28T17:39:37.261Z,44.60
2022-11-28T17:42:05.444Z,42.28
2022-11-28T17:44:36.156Z,44.42
2022-11-28T17:47:04.224Z,42.03
2022-11-28T17:49:31.734Z,39.63
2022-11-28T17:51:58.731Z,40.72
2022-11-28T17:54:27.178Z,39.78
2022-11-28T17:56:54.685Z,40.85
2022-11-28T17:59:24.298Z,40.35
2022-11-28T18:01:51.547Z,41.60
2022-11-28T18:04:19.465Z,41.92
2022-11-28T18:06:47.717Z,41.65
2022-11-28T18:09:15.339Z,42.60
2022-11-28T18:11:46.366Z,41.85
2022-11-28T18:14:14.408Z,39.08
2022-11-28T18:16:43.760Z,40.20
2022-11-28T18:19:11.186Z,41.47
2022-11-28T18:21:38.210Z,41.45
2022-11-28T18:24:05.535Z,41.33
2022-11-28T18:26:32.652Z,40.78
2022-11-28T18:28:59.608Z,41.60
2022-11-28T18:31:29.367Z,41.97
2022-11-28T18:34:02.213Z,41.38
2022-11-28T18:36:31.512Z,40.70
2022-11-28T18:39:06.597Z,42.00
2022-11-28T18:41:34.006Z,40.97
2022-11-28T18:44:04.718Z,41.30
2022-11-28T18:46:33.035Z,41.50
2022-11-28T18:49:00.476Z,43.45
2022-11-28T18:51:32.288Z,40.60
2022-11-28T18:54:01.696Z,41.97
2022-11-28T18:56:29.911Z,43.67
2022-11-28T18:58:59.278Z,46.63
2022-11-28T19:01:30.544Z,44.08
2022-11-28T19:04:07.952Z,47.60
2022-11-28T19:06:36.822Z,46.08
2022-11-28T19:09:09.322Z,43.95
2022-11-28T19:11:36.698Z,42.08
2022-11-28T19:14:04.472Z,42.80
2022-11-28T19:16:35.478Z,40.78
2022-11-28T19:19:05.545Z,44.13
2022-11-28T19:21:35.114Z,42.90
2022-11-28T19:24:04.140Z,41.42
2022-11-28T19:26:34.045Z,41.13
2022-11-28T19:29:02.468Z,43.60
2022-11-28T19:31:33.487Z,40.55
2022-11-28T19:34:07.306Z,40.45
2022-11-28T19:36:44.906Z,39.95
2022-11-28T19:39:24.740Z,40.78
2022-11-28T19:41:55.751Z,39.70
2022-11-28T19:44:24.678Z,41.00
2022-11-28T19:46:52.858Z,40.35
2022-11-28T19:49:23.371Z,40.05
2022-11-28T19:51:51.633Z,39.33
2022-11-28T19:54:22.847Z,40.20
2022-11-28T19:56:51.005Z,40.95
2022-11-28T20:11:21.352Z,44.88
2022-11-28T20:13:49.825Z,43.92
2022-11-28T20:16:18.672Z,41.97
2022-11-28T20:18:46.023Z,41.65
2022-11-28T20:21:17.114Z,39.97
2022-11-28T20:23:59.496Z,39.92
2022-11-28T20:26:27.181Z,40.40
2022-11-28T20:28:56.252Z,39.83
2022-11-28T20:31:30.934Z,40.47
2022-11-28T20:33:58.536Z,40.72
2022-11-28T20:36:28.861Z,40.97
2022-11-28T20:38:57.348Z,40.95
2022-11-28T20:41:26.556Z,41.17
2022-11-28T20:43:53.793Z,40.88
2022-11-28T20:46:28.203Z,40.38
2022-11-28T20:48:58.936Z,40.15
2022-11-28T20:51:28.922Z,40.08
2022-11-28T20:54:00.228Z,39.65
2022-11-28T20:56:31.684Z,39.35
2022-11-28T20:59:01.059Z,39.65
2022-11-28T21:01:33.564Z,40.65
2022-11-28T21:04:04.466Z,43.17
2022-11-28T21:06:31.989Z,41.28
2022-11-28T21:08:59.574Z,42.22
2022-11-28T21:14:15.564Z,42.13
2022-11-28T21:16:43.755Z,43.55
2022-11-28T21:19:11.586Z,45.22
2022-11-28T21:21:40.815Z,42.22
2022-11-28T21:24:13.408Z,43.90
2022-11-28T21:26:47.874Z,44.05
2022-11-28T21:29:16.734Z,43.03
2022-11-28T21:31:45.578Z,43.40
2022-11-28T21:34:14.628Z,44.00
2022-11-28T21:36:42.397Z,42.65
2022-11-28T21:39:20.296Z,42.75
2022-11-28T21:41:47.941Z,41.72
2022-11-28T21:44:14.981Z,42.72
2022-11-28T21:46:42.192Z,43.42
2022-11-28T21:49:09.315Z,42.80
2022-11-28T21:51:36.231Z,43.85
2022-11-28T21:54:03.532Z,41.60
2022-11-28T21:56:30.484Z,40.67
2022-11-28T21:58:57.483Z,40.58
2022-11-28T22:01:24.583Z,38.03
2022-11-28T22:03:51.703Z,38.22
2022-11-28T22:06:24.697Z,37.47
2022-11-28T22:11:21.528Z,35.53
2022-11-28T22:13:49.575Z,35.35
2022-11-28T22:16:26.326Z,36.08
2022-11-28T22:18:57.575Z,34.92
2022-11-28T22:24:12.229Z,34.90
2022-11-28T22:26:39.229Z,34.08
2022-11-28T22:29:06.346Z,34.92
2022-11-28T22:31:35.924Z,33.60
2022-11-28T22:34:02.915Z,35.65
2022-11-28T22:36:31.261Z,35.22
2022-11-28T22:38:59.438Z,34.33
2022-11-28T22:41:29.787Z,35.63
2022-11-28T22:44:00.325Z,35.53
2022-11-28T22:46:28.055Z,36.08
2022-11-28T22:48:55.009Z,36.00
2022-11-28T22:51:25.820Z,36.33
2022-11-28T22:53:55.702Z,35.83
2022-11-28T22:56:23.672Z,34.45
2022-11-28T22:58:50.832Z,35.28
2022-11-28T23:01:22.765Z,34.95
2022-11-28T23:03:50.273Z,35.50
2022-11-28T23:06:27.363Z,34.35
2022-11-28T23:08:55.732Z,36.17
2022-11-28T23:11:27.538Z,35.20
2022-11-28T23:13:54.842Z,35.53
2022-11-28T23:16:32.865Z,35.95
2022-11-28T23:19:04.914Z,34.47
2022-11-28T23:21:37.749Z,35.47
2022-11-28T23:24:06.578Z,37.20
2022-11-28T23:26:34.228Z,34.80
2022-11-28T23:29:03.813Z,35.90
2022-11-28T23:31:34.027Z,34.45
2022-11-28T23:34:01.836Z,36.08
2022-11-28T23:36:49.782Z,34.22
2022-11-28T23:52:41.275Z,38.33
2022-11-28T23:55:08.824Z,36.38
2022-11-28T23:57:35.767Z,34.05
